パリ/シャルル・ド・ゴール の空港の天気 - METARとTAF

シャルル・ド・ゴール国際空港(パリ) ( LFPG / CDG ) - フランス Paris
飛行場実況気象(Metar)
観測時間01/23 13:00 CET (01/23 12:00 UTC)
風向・風速北北東 4m/s
視程1500m
天気現象もや
全天を覆う雲 雲底高度 90m
気温-2℃
湿度100%
気圧1027hPa
METARLFPG 231200Z 03007KT 1500 BR OVC003 M02/M02 Q1027 BECMG 2500 BR
過去の天気等 Google飛行場航空写真 Wunderground天気予報

過去48時間のMETAR

飛行場予報(TAF)
発表時間: 1/23 12:25 CET (1/23 11:25 UTC)
予報対象時間: 23日13時 CET ~ 24日19時 CET
風向・風速北北東 4m/s
視程2,500m
天気現象もや
全天の8割程度の雲 雲底高度 90m
23日13時 CET ~ 23日15時 CET に徐々に
視程4,000m
天気現象もや
全天の4割程度の雲 雲底高度 120m
23日15時 CET ~ 23日19時 CET に 確率 40% で一時的に
視程6,000m
なし
23日18時 CET ~ 23日20時 CET に徐々に
視程2,500m
天気現象もや
23日21時 CET ~ 23日23時 CET に徐々に
視程1,400m
天気現象もや
全天の8割程度の雲 雲底高度 120m
24日1時 CET ~ 24日7時 CET に 確率 40% で一時的に
視程600m
天気現象散在した霧
全天の8割程度の雲 雲底高度 30m
24日7時 CET ~ 24日8時 CET に 確率 30% で一時的に
天気現象弱い氷霧雨
全天の8割程度の雲 雲底高度 60m
24日7時 CET ~ 24日12時 CET に 確率 40% で一時的に
天気現象弱い雪
全天の8割程度の雲 雲底高度 60m
24日13時 CET ~ 24日15時 CET に徐々に
視程8,000m
天気現象運行に影響にある天気現象が終了
全天の8割程度の雲 雲底高度 370m
24日15時 CET ~ 24日19時 CET に一時的に
全天の4割程度の雲 雲底高度 610m
TAF AMD LFPG 231125Z 2312/2418 02008KT 2500 BR BKN003
BECMG 2312/2314 4000 BR SCT004
PROB40 TEMPO 2314/2318 6000 NSC
BECMG 2317/2319 2500 BR
BECMG 2320/2322 1400 BR BKN004
PROB40 TEMPO 2400/2406 0600 BCFG BKN001
PROB30 TEMPO 2406/2407 -FZDZ BKN002
PROB40 TEMPO 2406/2411 -SN BKN002
BECMG 2412/2414 8000 NSW BKN012
TEMPO 2414/2418 SCT020 TX01/2315Z TNM03/2400Z